Flight Track Log - Related Links

Times and Time Zones

All times are in EDT time to prevent confusion due to time zone crossing. See the USC105 flight status page for this flight to view local times or setup timezone preferences in your user account.

Time Position Orientation Groundspeed Altitude Reporting Facility
EDT Latitude Longitude Course Direction KTS MPH feet Rate Location/Type
Mon 11:15:50 PM 41.5336 -81.6761 347° North 134 154 1,300  Level Cleveland Center
Mon 11:16:50 PM 41.5606 -81.6958 331° Northwest 116 133 2,700 1,039 Climbing Cleveland Center
Mon 11:17:57 PM 41.5808 -81.7461 298° West 135 155 3,500 643 Climbing Cleveland Center
Mon 11:19:10 PM 41.6011 -81.7994 297° West 142 163 4,200 561 Climbing Cleveland Center
Mon 11:20:16 PM 41.6214 -81.8497 298° West 144 166 4,800 520 Climbing Cleveland Center
Mon 11:21:17 PM 41.6417 -81.9003 298° West 145 167 5,300 492 Climbing Cleveland Center
Mon 11:22:18 PM 41.6600 -81.9478 297° West 142 163 5,800 520 Climbing Cleveland Center
Mon 11:23:24 PM 41.6761 -82.0008 292° West 146 168 6,400 545 Climbing Cleveland Center
Mon 11:24:19 PM 41.6942 -82.0431 300° West 146 168 6,900 470 Climbing Cleveland Center
Mon 11:25:19 PM 41.7081 -82.0961 289° West 152 175 7,300 446 Climbing Cleveland Center
Mon 11:26:20 PM 41.7261 -82.1522 293° West 158 182 7,800 344 Climbing Cleveland Center
Mon 11:27:21 PM 41.7442 -82.2139 291° West 163 188 8,000 99 Climbing Cleveland Center
Mon 11:28:21 PM 41.7703 -82.2703 302° West 181 208 8,000  Level Cleveland Center
Mon 11:29:20 PM 41.7883 -82.3208 296° West 180 207 8,000  Level Cleveland Center
Mon 11:30:20 PM 41.8144 -82.3828 300° West 169 194 8,000  Level Cleveland Center
Mon 11:31:21 PM 41.8344 -82.4392 295° West 166 191 8,000  Level Cleveland Center
Mon 11:32:21 PM 41.8544 -82.4928 297° West 165 190 8,000  Level Cleveland Center
Mon 11:33:22 PM 41.8742 -82.5492 295° West 165 190 8,000  Level Cleveland Center
Mon 11:34:23 PM 41.8942 -82.6083 294° West 167 192 8,000  Level Cleveland Center
Mon 11:35:23 PM 41.9139 -82.6619 296° West 166 191 8,000 -189 Level Cleveland Center
Mon 11:36:30 PM 41.9358 -82.7269 294° West 174 200 7,600 -375 Descending Cleveland Center
Mon 11:37:31 PM 41.9575 -82.7892 295° West 180 207 7,200 -472 Descending Cleveland Center
Mon 11:38:37 PM 41.9939 -82.8461 311° West 185 213 6,600 -567 Descending Cleveland Center
Mon 11:39:38 PM 42.0261 -82.9006 309° West 182 209 6,000 -295 Descending Cleveland Center
Mon 11:40:39 PM 42.0564 -82.9519 308° West 173 199 6,000 -99 Level Cleveland Center
Mon 11:41:39 PM 42.0889 -82.9978 314° West 167 192 5,800 -209 Descending Cleveland Center
Mon 11:42:34 PM 42.1150 -83.0464 306° West 176 203 5,600 -362 Descending Cleveland Center
Mon 11:43:35 PM 42.1450 -83.0981 308° West 177 204 5,100 -298 Descending Cleveland Center
Mon 11:44:35 PM 42.1753 -83.1469 310° West 172 198 5,000 -50 Descending Cleveland Center
Mon 11:45:36 PM 42.2053 -83.1986 308° West 158 182 5,000  Level Cleveland Center
Mon 11:46:37 PM 42.2336 -83.2417 312° West 153 176 5,000  Level Cleveland Center
Mon 11:47:38 PM 42.2594 -83.2878 307° West 149 171 5,000 -298 Level Cleveland Center
Mon 11:48:38 PM 42.2919 -83.3256 319° Northwest 167 192 4,400 -496 Descending Cleveland Center
Mon 11:49:39 PM 42.3308 -83.3525 333° Northwest 148 170 4,000 -443 Descending Cleveland Center
Mon 11:50:40 PM 42.3636 -83.3822 326° Northwest 132 152 3,500 -783 Descending Cleveland Center
Mon 11:51:34 PM 42.3522 -83.4153 245° Southwest 185 213 2,500 -595 Descending Cleveland Center
Mon 11:52:41 PM 42.3039 -83.4414 202° Southwest 151 174 2,300 -378 Descending Cleveland Center
Mon 11:53:41 PM 42.2778 -83.4794 227° Southwest 143 165 1,700 -626 Descending Cleveland Center
Mon 11:54:36 PM 42.2561 -83.5119 228° Southwest 129 148 1,100 -655 Descending Cleveland Center
Mon 11:56:00 PM 42.2333 -83.5167 236° Southwest  Level FlightAware Approximate
Tue 12:03:00 AM 42.2393 -83.5310 236° Southwest  Level Estimated
Tue 12:04:00 AM 42.2393 -83.5310 236° Southwest  Level Estimated

Login

Don't have an account? Register now (free) for customized features, flight alerts, and more!